Time;durP1;ratioP1;P1;durP2;ratioP2;P2;SDS_P1;SDS_P2;PMS_P1;PMS_P2;Temp;Humidity;BMP_temperature;BMP_pressure;BME280_temperature;BME280_humidity;BME280_pressure;Samples;Min_cycle;Max_cycle;Signal;HPM_P1;HPM_P2
2021/10/25 00:02:04;;;;;;;10.63;4.20;;;;;;;7.92;nan;101516.38;5051834;28;20171;-71
2021/10/25 00:04:30;;;;;;;8.33;4.60;;;;;;;7.74;nan;101505.38;5053145;28;20246;-72
2021/10/25 00:06:56;;;;;;;11.87;4.67;;;;;;;7.75;nan;101500.94;5051563;28;20192;-70
2021/10/25 00:09:21;;;;;;;10.27;4.40;;;;;;;7.89;nan;101501.41;5051755;28;20313;-72
2021/10/25 00:11:46;;;;;;;10.10;4.80;;;;;;;7.70;nan;101500.22;5052826;28;20179;-72
2021/10/25 00:14:12;;;;;;;6.93;4.20;;;;;;;7.91;nan;101506.66;5053085;28;20298;-70
2021/10/25 00:16:38;;;;;;;11.27;5.07;;;;;;;7.73;nan;101492.16;5052777;28;20672;-71
2021/10/25 00:19:04;;;;;;;9.87;4.23;;;;;;;7.72;nan;101480.66;5051587;28;20545;-71
2021/10/25 00:21:29;;;;;;;10.40;4.90;;;;;;;7.80;nan;101483.97;5052714;28;20171;-71
2021/10/25 00:23:55;;;;;;;10.27;4.70;;;;;;;7.66;nan;101475.53;5053040;28;20170;-72
2021/10/25 00:26:20;;;;;;;11.87;4.77;;;;;;;7.78;nan;101485.75;5052487;28;20197;-70
2021/10/25 00:28:45;;;;;;;10.90;4.60;;;;;;;7.88;nan;101488.16;5051418;28;20621;-71
2021/10/25 00:31:10;;;;;;;10.53;4.93;;;;;;;7.80;nan;101477.75;5052651;28;20198;-71
2021/10/25 00:33:36;;;;;;;11.10;4.67;;;;;;;7.82;nan;101484.78;5051391;28;20211;-71
2021/10/25 00:36:01;;;;;;;10.80;5.43;;;;;;;7.57;nan;101481.13;5052456;28;20202;-71
2021/10/25 00:38:26;;;;;;;11.50;4.93;;;;;;;7.65;nan;101480.88;5051679;28;20661;-71
2021/10/25 00:40:52;;;;;;;11.47;5.23;;;;;;;7.68;nan;101486.97;5051485;28;20172;-71
2021/10/25 00:43:17;;;;;;;11.10;5.10;;;;;;;7.61;nan;101477.47;5051578;28;20175;-71
2021/10/25 00:45:43;;;;;;;11.47;5.17;;;;;;;7.71;nan;101478.03;5052403;28;20214;-72
2021/10/25 00:48:09;;;;;;;9.80;5.00;;;;;;;7.43;nan;101462.06;5035116;28;20164;-71
2021/10/25 00:50:34;;;;;;;10.93;4.77;;;;;;;7.57;nan;101461.66;5051373;28;20198;-72
2021/10/25 00:52:59;;;;;;;10.90;4.23;;;;;;;7.53;nan;101466.19;5055882;28;20348;-71
2021/10/25 00:55:25;;;;;;;9.53;4.80;;;;;;;7.32;nan;101459.72;5061919;28;20236;-71
2021/10/25 00:57:52;;;;;;;10.83;5.17;;;;;;;7.63;nan;101469.44;5059000;28;20187;-71
2021/10/25 01:00:17;;;;;;;9.60;5.07;;;;;;;7.31;nan;101465.09;5060939;28;20182;-71
2021/10/25 01:02:42;;;;;;;10.23;4.73;;;;;;;7.34;nan;101465.00;5061846;28;20172;-71
2021/10/25 01:05:09;;;;;;;9.53;5.63;;;;;;;7.42;nan;101471.81;5062318;28;20173;-72
2021/10/25 01:07:35;;;;;;;9.57;4.73;;;;;;;7.32;nan;101453.53;5059823;28;20612;-71
2021/10/25 01:10:02;;;;;;;11.57;5.03;;;;;;;7.46;nan;101456.69;5058027;28;20187;-71
2021/10/25 01:12:29;;;;;;;15.60;5.40;;;;;;;7.36;nan;101456.06;5054932;28;20182;-73
2021/10/25 01:14:54;;;;;;;9.27;5.10;;;;;;;7.11;nan;101447.09;5054562;28;20244;-74
2021/10/25 01:17:19;;;;;;;10.37;5.00;;;;;;;7.35;nan;101448.16;5057975;28;20203;-71
2021/10/25 01:19:44;;;;;;;11.67;4.73;;;;;;;7.22;nan;101447.66;5057654;28;20187;-71
2021/10/25 01:22:10;;;;;;;11.43;5.13;;;;;;;7.33;nan;101448.19;5055337;28;20659;-72
2021/10/25 01:24:35;;;;;;;13.33;5.33;;;;;;;7.37;nan;101443.66;5055977;28;20176;-71
2021/10/25 01:27:00;;;;;;;18.33;5.10;;;;;;;7.11;nan;101447.97;5054413;28;20253;-71
2021/10/25 01:29:26;;;;;;;9.97;4.50;;;;;;;7.27;nan;101444.84;5054599;28;20541;-71
2021/10/25 01:31:51;;;;;;;9.53;4.67;;;;;;;7.37;nan;101449.84;5059573;28;20549;-71
2021/10/25 01:34:16;;;;;;;14.80;4.93;;;;;;;7.31;nan;101446.50;5061732;28;20196;-71
2021/10/25 01:36:42;;;;;;;12.20;4.53;;;;;;;7.28;nan;101436.84;5057584;28;20225;-71
2021/10/25 01:39:08;;;;;;;10.13;5.57;;;;;;;7.32;nan;101457.06;5055039;28;20684;-71
2021/10/25 01:41:33;;;;;;;8.17;5.00;;;;;;;7.36;nan;101447.22;5055882;28;20633;-71
2021/10/25 01:43:59;;;;;;;12.60;5.67;;;;;;;7.20;nan;101444.16;5054480;28;20221;-72
2021/10/25 01:46:24;;;;;;;10.20;5.50;;;;;;;7.24;nan;101443.16;5055601;28;20207;-71
2021/10/25 01:48:49;;;;;;;11.37;5.17;;;;;;;7.40;nan;101440.91;5055238;28;20175;-72
2021/10/25 01:51:15;;;;;;;11.40;5.10;;;;;;;6.97;nan;101434.19;5054845;28;20182;-72
2021/10/25 01:53:41;;;;;;;12.87;5.77;;;;;;;7.35;nan;101442.84;5055642;28;20561;-72
2021/10/25 01:56:08;;;;;;;13.67;5.43;;;;;;;6.89;nan;101433.56;5055495;28;20210;-72
2021/10/25 01:58:34;;;;;;;9.23;4.90;;;;;;;6.88;nan;101431.81;5055062;28;20176;-72
2021/10/25 02:00:59;;;;;;;9.77;5.90;;;;;;;6.93;nan;101431.69;5053956;28;20545;-71
2021/10/25 02:03:25;;;;;;;11.43;5.00;;;;;;;6.82;nan;101432.88;5054970;28;20176;-71
2021/10/25 02:05:50;;;;;;;12.40;4.90;;;;;;;7.07;nan;101438.34;5053508;28;20258;-72
2021/10/25 02:08:16;;;;;;;11.77;5.37;;;;;;;6.74;nan;101423.38;5055047;28;20174;-72
2021/10/25 02:10:42;;;;;;;9.20;5.50;;;;;;;6.66;nan;101410.31;5053974;28;20175;-72
2021/10/25 02:13:11;;;;;;;11.00;5.73;;;;;;;6.69;nan;101417.31;5054171;28;20203;-72
2021/10/25 02:15:36;;;;;;;11.43;5.37;;;;;;;6.84;nan;101407.16;5054977;28;20199;-71
2021/10/25 02:18:01;;;;;;;7.20;4.67;;;;;;;7.01;nan;101422.56;5055809;28;20186;-71
2021/10/25 02:20:27;;;;;;;13.67;5.50;;;;;;;6.85;nan;101406.25;5057974;28;20187;-72
2021/10/25 02:22:52;;;;;;;13.37;5.80;;;;;;;6.66;nan;101401.47;5061267;28;20180;-72
2021/10/25 02:25:17;;;;;;;13.27;5.67;;;;;;;6.72;nan;101425.22;5055274;28;20250;-71
2021/10/25 02:27:43;;;;;;;9.53;5.07;;;;;;;6.85;nan;101427.47;5057569;28;20220;-71
2021/10/25 02:30:08;;;;;;;11.03;5.40;;;;;;;6.78;nan;101425.03;5053840;28;20214;-72
2021/10/25 02:32:33;;;;;;;10.77;5.30;;;;;;;6.59;nan;101412.25;5054839;28;20203;-72
2021/10/25 02:34:59;;;;;;;11.97;5.50;;;;;;;6.55;nan;101402.66;5054432;28;20656;-72
2021/10/25 02:37:25;;;;;;;16.50;6.20;;;;;;;6.58;nan;101391.09;5054643;28;20190;-73
2021/10/25 02:39:50;;;;;;;10.07;5.00;;;;;;;6.86;nan;101412.41;5052917;28;20197;-71
2021/10/25 02:42:16;;;;;;;9.87;5.13;;;;;;;6.68;nan;101402.31;5052864;28;20202;-71
2021/10/25 02:44:43;;;;;;;11.37;5.53;;;;;;;6.73;nan;101411.91;5054135;28;20251;-72
2021/10/25 02:47:08;;;;;;;8.07;4.80;;;;;;;6.89;nan;101417.63;5052592;28;20624;-72
2021/10/25 02:49:33;;;;;;;13.13;5.53;;;;;;;6.78;nan;101409.13;5052848;28;20184;-73
2021/10/25 02:51:59;;;;;;;11.97;4.87;;;;;;;6.55;nan;101396.47;5054097;28;20229;-71
2021/10/25 02:54:25;;;;;;;8.37;5.10;;;;;;;6.62;nan;101397.16;5054063;28;20198;-71
2021/10/25 02:56:51;;;;;;;14.17;5.73;;;;;;;6.71;nan;101410.19;5052871;28;20245;-71
2021/10/25 02:59:17;;;;;;;7.80;5.17;;;;;;;6.56;nan;101391.13;5053897;28;20203;-71
2021/10/25 03:01:43;;;;;;;10.17;5.40;;;;;;;6.66;nan;101396.16;5053917;28;20202;-71
2021/10/25 03:04:08;;;;;;;13.67;5.70;;;;;;;6.66;nan;101399.69;5036228;28;20226;-71
2021/10/25 03:06:34;;;;;;;9.37;5.10;;;;;;;6.49;nan;101389.56;5053947;28;20199;-70
2021/10/25 03:09:00;;;;;;;9.53;5.07;;;;;;;6.27;nan;101391.03;5053956;28;20207;-71
2021/10/25 03:11:26;;;;;;;12.57;6.23;;;;;;;6.42;nan;101381.81;5053914;28;20172;-71
2021/10/25 03:13:52;;;;;;;11.00;5.93;;;;;;;6.63;nan;101388.31;5052879;28;20195;-72
2021/10/25 03:16:19;;;;;;;10.67;5.30;;;;;;;6.18;nan;101373.59;5052475;28;20248;-72
2021/10/25 03:18:44;;;;;;;12.97;6.10;;;;;;;6.40;nan;101371.25;5052899;28;20204;-71
2021/10/25 03:21:10;;;;;;;10.10;5.60;;;;;;;6.45;nan;101379.94;5053650;28;20190;-71
2021/10/25 03:23:35;;;;;;;14.50;6.13;;;;;;;6.34;nan;101366.13;5053512;28;20622;-71
2021/10/25 03:26:01;;;;;;;10.40;5.43;;;;;;;6.28;nan;101375.09;5051975;28;20264;-71
2021/10/25 03:28:26;;;;;;;17.60;5.53;;;;;;;6.23;nan;101368.16;5053638;28;20190;-72
2021/10/25 03:30:52;;;;;;;12.67;5.67;;;;;;;6.46;nan;101370.22;5052436;28;20181;-72
2021/10/25 03:33:18;;;;;;;11.47;5.73;;;;;;;6.22;nan;101356.69;5051937;28;20194;-71
2021/10/25 03:35:43;;;;;;;9.63;5.33;;;;;;;6.23;nan;101360.22;5037028;28;20196;-70
2021/10/25 03:38:11;;;;;;;11.63;5.50;;;;;;;6.36;nan;101356.34;5036144;28;20182;-71
2021/10/25 03:40:38;;;;;;;10.97;5.03;;;;;;;6.32;nan;101360.00;5053158;28;20182;-71
2021/10/25 03:43:03;;;;;;;11.47;5.60;;;;;;;6.31;nan;101347.63;5053195;28;20271;-72
2021/10/25 03:46:17;;;;;;;10.20;5.20;;;;;;;6.19;nan;101342.66;5053334;28;20534;-71
2021/10/25 03:48:31;;;;;;;12.03;5.60;;;;;;;6.27;nan;101343.31;5044856;28;20278;-72
2021/10/25 03:50:56;;;;;;;13.63;5.30;;;;;;;6.18;nan;101348.88;5052729;28;20606;-72
2021/10/25 03:53:33;;;;;;;11.33;5.70;;;;;;;6.08;nan;101350.03;5051724;28;20202;-72
2021/10/25 03:56:09;;;;;;;10.33;5.40;;;;;;;6.20;nan;101347.91;5052439;28;20194;-71
2021/10/25 03:59:05;;;;;;;11.53;5.00;;;;;;;6.02;nan;101343.13;5053254;28;20156;-70
2021/10/25 04:28:09;;;;;;;13.33;5.80;;;;;;;6.02;nan;101329.00;5052061;28;20177;-72
2021/10/25 04:30:35;;;;;;;14.33;5.70;;;;;;;5.93;nan;101323.00;5053267;28;20514;-72
2021/10/25 04:33:02;;;;;;;11.80;5.60;;;;;;;6.24;nan;101338.09;5051511;28;20664;-73
2021/10/25 04:35:28;;;;;;;11.73;5.63;;;;;;;6.11;nan;101334.91;5051425;28;20179;-72
2021/10/25 04:37:53;;;;;;;10.77;5.87;;;;;;;6.10;nan;101333.19;5053345;28;20575;-72
2021/10/25 04:40:19;;;;;;;12.17;5.73;;;;;;;5.87;nan;101331.09;5051312;28;20537;-72
2021/10/25 04:42:44;;;;;;;11.73;5.87;;;;;;;5.89;nan;101326.66;5053053;28;20203;-72
2021/10/25 04:45:10;;;;;;;8.60;5.57;;;;;;;5.76;nan;101325.19;5054417;28;20206;-74
2021/10/25 04:47:35;;;;;;;11.40;5.50;;;;;;;6.13;nan;101334.88;5067372;28;20190;-72
2021/10/25 04:50:02;;;;;;;14.20;5.93;;;;;;;6.15;nan;101344.53;5071957;28;20267;-72
2021/10/25 04:52:27;;;;;;;11.10;5.63;;;;;;;5.63;nan;101323.78;5072798;28;20235;-72
2021/10/25 04:54:53;;;;;;;9.90;6.10;;;;;;;5.95;nan;101333.59;5071163;28;20201;-72
2021/10/25 04:57:18;;;;;;;9.90;5.17;;;;;;;5.71;nan;101320.94;5067955;28;20221;-73
2021/10/25 04:59:44;;;;;;;9.87;5.60;;;;;;;5.60;nan;101319.41;5056181;28;20181;-71
2021/10/25 05:02:09;;;;;;;11.60;5.10;;;;;;;5.52;nan;101315.19;5056801;28;20178;-72
2021/10/25 05:04:34;;;;;;;12.13;5.60;;;;;;;5.78;nan;101328.66;5057081;28;20179;-72
2021/10/25 05:07:00;;;;;;;13.60;5.27;;;;;;;5.75;nan;101322.59;5056672;28;20253;-71
2021/10/25 05:09:25;;;;;;;12.10;5.70;;;;;;;5.74;nan;101321.72;5056454;28;20185;-71
2021/10/25 05:11:50;;;;;;;12.03;5.73;;;;;;;5.57;nan;101327.41;5038026;28;20537;-72
2021/10/25 05:14:16;;;;;;;13.63;6.20;;;;;;;5.61;nan;101329.09;5055809;28;20221;-72
2021/10/25 05:16:43;;;;;;;9.83;5.60;;;;;;;5.48;nan;101327.66;5055084;28;20195;-72
2021/10/25 05:19:09;;;;;;;14.50;5.90;;;;;;;5.25;nan;101330.84;5054874;28;20222;-71
2021/10/25 05:21:34;;;;;;;10.37;5.90;;;;;;;5.24;nan;101325.59;5054319;28;20173;-71
2021/10/25 05:24:00;;;;;;;12.23;5.90;;;;;;;5.57;nan;101334.47;5037984;28;20262;-72
2021/10/25 05:26:25;;;;;;;12.13;6.27;;;;;;;5.69;nan;101336.84;5054514;28;20202;-72
2021/10/25 05:28:51;;;;;;;10.70;6.07;;;;;;;5.44;nan;101333.06;5038032;28;20714;-72
2021/10/25 05:31:17;;;;;;;11.13;5.63;;;;;;;5.40;nan;101336.69;5054316;28;20263;-71
2021/10/25 05:33:42;;;;;;;12.90;6.23;;;;;;;5.52;nan;101339.03;5055633;28;20594;-71
2021/10/25 05:36:09;;;;;;;14.40;5.93;;;;;;;5.51;nan;101337.28;5054676;28;20209;-72
2021/10/25 05:38:35;;;;;;;11.77;6.23;;;;;;;5.37;nan;101340.28;5054995;28;20180;-72
2021/10/25 05:41:01;;;;;;;12.17;6.57;;;;;;;5.28;nan;101330.78;5054516;28;20171;-72
2021/10/25 05:43:26;;;;;;;9.57;6.03;;;;;;;5.64;nan;101341.41;5054304;28;20174;-72
2021/10/25 05:45:52;;;;;;;15.83;6.57;;;;;;;5.41;nan;101327.84;5057134;28;20192;-71
2021/10/25 05:48:17;;;;;;;9.97;5.90;;;;;;;5.34;nan;101329.75;5054672;28;20181;-71
2021/10/25 05:50:43;;;;;;;10.60;5.30;;;;;;;5.31;nan;101328.06;5055891;28;20565;-73
2021/10/25 05:53:09;;;;;;;13.07;5.90;;;;;;;5.33;nan;101334.19;5054393;28;20183;-73
2021/10/25 05:55:37;;;;;;;14.90;5.97;;;;;;;5.30;nan;101322.81;5053411;28;20199;-72
2021/10/25 05:58:02;;;;;;;12.50;6.30;;;;;;;5.49;nan;101323.22;5053466;28;20257;-72
2021/10/25 06:00:31;;;;;;;10.63;5.27;;;;;;;5.12;nan;101313.50;5055445;28;20264;-71
2021/10/25 06:02:57;;;;;;;9.83;5.27;;;;;;;5.19;nan;101327.44;5038002;28;20265;-72
2021/10/25 06:05:26;;;;;;;8.60;5.23;;;;;;;5.17;nan;101331.91;5056004;28;20168;-72
2021/10/25 06:07:52;;;;;;;12.03;6.03;;;;;;;5.29;nan;101340.47;5055116;28;20206;-72
2021/10/25 06:10:18;;;;;;;11.93;5.90;;;;;;;5.37;nan;101347.34;5055165;28;20170;-71
2021/10/25 06:12:47;;;;;;;10.70;5.57;;;;;;;5.47;nan;101339.13;5037087;28;20700;-72
2021/10/25 06:15:17;;;;;;;11.83;5.87;;;;;;;5.15;nan;101337.22;5054017;28;20201;-72
2021/10/25 06:17:53;;;;;;;11.47;6.63;;;;;;;5.43;nan;101337.47;5054105;28;20153;-71
2021/10/25 06:20:29;;;;;;;11.60;6.00;;;;;;;5.60;nan;101339.75;5054630;28;20620;-73
2021/10/25 06:22:55;;;;;;;13.37;6.40;;;;;;;5.40;nan;101345.50;5037559;28;20171;-71
2021/10/25 06:25:22;;;;;;;12.40;6.10;;;;;;;5.52;nan;101339.03;5054317;28;20544;-71
2021/10/25 06:27:51;;;;;;;9.93;5.77;;;;;;;5.38;nan;101339.38;5053379;28;20195;-71
2021/10/25 06:30:16;;;;;;;10.30;5.63;;;;;;;5.55;nan;101338.94;5053814;28;20176;-72
2021/10/25 06:32:42;;;;;;;14.10;5.90;;;;;;;5.77;nan;101340.19;5053428;28;20181;-72
2021/10/25 06:35:10;;;;;;;13.30;6.00;;;;;;;6.08;nan;101332.34;5055042;28;20205;-72
2021/10/25 06:37:56;;;;;;;15.40;5.97;;;;;;;6.11;nan;101334.91;5054644;28;20188;-71
2021/10/25 06:40:23;;;;;;;11.53;6.30;;;;;;;6.12;nan;101333.13;5054629;28;20240;-72
2021/10/25 06:42:49;;;;;;;16.13;6.23;;;;;;;6.36;nan;101329.84;5053963;28;20205;-71
2021/10/25 06:45:17;;;;;;;12.17;5.70;;;;;;;6.47;nan;101333.03;5053092;28;20726;-71
2021/10/25 06:47:43;;;;;;;10.97;5.70;;;;;;;6.53;nan;101330.22;5053408;28;20155;-72
2021/10/25 06:50:09;;;;;;;12.27;5.83;;;;;;;6.58;nan;101344.22;5036199;28;20173;-72
2021/10/25 06:52:35;;;;;;;15.97;6.63;;;;;;;6.51;nan;101329.41;5054428;28;20171;-72
2021/10/25 06:55:01;;;;;;;14.27;8.60;;;;;;;6.57;nan;101337.16;5036202;28;20192;-72
2021/10/25 06:57:26;;;;;;;12.37;5.83;;;;;;;6.73;nan;101347.38;5054023;28;20190;-72
2021/10/25 06:59:51;;;;;;;16.30;5.53;;;;;;;6.93;nan;101344.09;5054412;28;20175;-72
2021/10/25 07:02:17;;;;;;;12.20;5.17;;;;;;;6.86;nan;101354.03;5054217;28;20167;-71
2021/10/25 07:04:42;;;;;;;10.07;5.40;;;;;;;6.82;nan;101341.78;5036251;28;20195;-71
2021/10/25 07:07:08;;;;;;;10.20;5.40;;;;;;;7.01;nan;101350.91;5054166;28;20241;-72
2021/10/25 07:09:33;;;;;;;10.83;5.17;;;;;;;6.86;nan;101339.00;5054351;28;20182;-72
2021/10/25 07:11:58;;;;;;;11.27;4.97;;;;;;;7.18;nan;101345.13;5052675;28;20303;-71
2021/10/25 07:14:32;;;;;;;9.17;5.07;;;;;;;7.39;nan;101347.09;5036144;28;20211;-72
2021/10/25 07:19:45;;;;;;;11.03;5.63;;;;;;;7.65;nan;101332.09;5053434;28;20224;-72
2021/10/25 07:23:01;;;;;;;11.93;5.83;;;;;;;7.79;nan;101332.50;5052698;28;20253;-73
2021/10/25 07:28:08;;;;;;;12.23;5.27;;;;;;;7.55;nan;101331.53;5054415;28;20208;-71
2021/10/25 08:00:55;;;;;;;11.97;5.47;;;;;;;7.65;nan;101282.50;5052381;28;20167;-73
2021/10/25 08:06:06;;;;;;;11.03;4.20;;;;;;;8.30;nan;101297.09;5052832;28;20556;-72
2021/10/25 08:11:15;;;;;;;12.60;5.20;;;;;;;7.96;nan;101287.63;5054735;28;20249;-72
2021/10/25 08:13:42;;;;;;;11.50;5.13;;;;;;;8.09;nan;101285.41;5052155;28;20231;-72
2021/10/25 08:16:11;;;;;;;10.63;5.23;;;;;;;8.46;nan;101304.47;5051525;28;20245;-71
2021/10/25 08:19:05;;;;;;;10.60;5.40;;;;;;;8.54;nan;101290.00;5036034;28;20179;-72
2021/10/25 08:21:27;;;;;;;12.10;5.73;;;;;;;8.46;nan;101285.84;5059459;28;20211;-72
2021/10/25 08:23:53;;;;;;;14.30;5.60;;;;;;;8.36;nan;101271.16;5058120;28;20178;-71
2021/10/25 08:26:18;;;;;;;19.47;7.30;;;;;;;9.11;nan;101289.59;5059493;28;20526;-71
2021/10/25 08:28:44;;;;;;;14.37;7.33;;;;;;;9.36;nan;101294.81;5058903;28;20232;-71
2021/10/25 08:31:11;;;;;;;17.20;7.50;;;;;;;9.49;nan;101301.34;5059632;28;20614;-71
2021/10/25 08:36:16;;;;;;;11.00;5.83;;;;;;;9.19;nan;101292.81;5059623;28;20248;-72
2021/10/25 08:41:30;;;;;;;11.87;4.70;;;;;;;9.70;nan;101295.16;5059993;28;20229;-72
2021/10/25 08:43:57;;;;;;;7.73;4.43;;;;;;;9.10;nan;101271.88;5058305;28;20258;-71
2021/10/25 08:46:26;;;;;;;6.80;4.17;;;;;;;8.95;nan;101273.34;5057716;28;20249;-72
2021/10/25 08:48:53;;;;;;;8.80;4.23;;;;;;;9.37;nan;101280.56;5041726;28;20179;-71
2021/10/25 08:51:18;;;;;;;10.90;4.53;;;;;;;9.35;nan;101274.44;5059313;28;20494;-71
2021/10/25 08:53:44;;;;;;;11.23;4.57;;;;;;;9.69;nan;101296.09;5058757;28;20262;-71
2021/10/25 08:56:16;;;;;;;8.53;4.03;;;;;;;9.96;nan;101309.16;5058713;28;20653;-72
2021/10/25 08:58:46;;;;;;;10.63;4.47;;;;;;;9.84;nan;101299.88;5058799;28;20574;-72
2021/10/25 09:01:25;;;;;;;9.07;4.13;;;;;;;10.30;nan;101313.94;5060466;28;20257;-72
2021/10/25 09:04:07;;;;;;;6.80;4.37;;;;;;;10.24;nan;101298.19;5060354;28;20710;-74
2021/10/25 09:06:34;;;;;;;7.57;4.60;;;;;;;10.61;nan;101305.44;5058887;28;20282;-75
2021/10/25 09:09:05;;;;;;;10.83;4.80;;;;;;;11.17;nan;101297.44;5059022;28;20641;-71
2021/10/25 09:11:31;;;;;;;10.47;3.97;;;;;;;10.79;nan;101293.91;5059587;28;20184;-71
2021/10/25 09:13:56;;;;;;;10.07;3.97;;;;;;;10.45;nan;101281.25;5059515;28;20198;-71
2021/10/25 09:16:22;;;;;;;11.20;5.03;;;;;;;11.07;nan;101276.56;5058692;28;20250;-72
2021/10/25 09:18:47;;;;;;;10.53;4.77;;;;;;;11.07;nan;101282.78;5058459;28;20533;-72
2021/10/25 09:21:14;;;;;;;7.53;4.43;;;;;;;10.98;nan;101293.03;5059488;28;20214;-72
2021/10/25 09:23:44;;;;;;;10.17;4.73;;;;;;;10.57;nan;101267.34;5059544;28;20185;-72
2021/10/25 09:26:12;;;;;;;9.00;4.03;;;;;;;11.46;nan;101295.16;5057724;28;20617;-72
2021/10/25 09:29:00;;;;;;;10.37;4.30;;;;;;;11.99;nan;101308.56;5058473;28;20217;-72
2021/10/25 09:31:36;;;;;;;9.77;4.37;;;;;;;12.14;nan;101291.69;5054787;28;20196;-72
2021/10/25 09:34:09;;;;;;;9.00;4.03;;;;;;;11.95;nan;101282.91;5055194;28;20183;-72
2021/10/25 09:36:39;;;;;;;8.77;4.10;;;;;;;12.03;nan;101294.06;5037897;28;20277;-72
2021/10/25 09:39:19;;;;;;;6.00;3.87;;;;;;;12.47;nan;101296.22;5055590;28;20187;-72
2021/10/25 09:41:59;;;;;;;4.97;3.37;;;;;;;11.11;nan;101254.09;5041318;28;20167;-72
2021/10/25 09:50:12;;;;;;;7.77;4.37;;;;;;;11.11;nan;101275.47;5023672;28;20187;-72
2021/10/25 09:52:42;;;;;;;8.73;4.07;;;;;;;11.04;nan;101271.38;5040497;28;20274;-71
2021/10/25 09:55:13;;;;;;;8.03;4.17;;;;;;;11.93;nan;101295.50;5061585;28;20214;-72
2021/10/25 09:57:49;;;;;;;10.77;4.07;;;;;;;12.36;nan;101301.28;5063000;28;20166;-71
2021/10/25 10:00:19;;;;;;;7.93;3.70;;;;;;;11.77;nan;101283.78;5064160;28;20194;-73
2021/10/25 10:02:46;;;;;;;8.33;4.00;;;;;;;11.27;nan;101244.44;5046282;28;20176;-73
2021/10/25 10:05:13;;;;;;;7.17;4.23;;;;;;;11.34;nan;101245.84;5059856;28;20199;-72
2021/10/25 10:07:39;;;;;;;6.30;3.77;;;;;;;12.78;nan;101298.09;5054895;28;20625;-72
2021/10/25 10:10:07;;;;;;;8.30;3.73;;;;;;;12.87;nan;101294.06;5054839;28;20562;-71
2021/10/25 10:12:33;;;;;;;7.20;4.10;;;;;;;12.96;nan;101286.38;5058379;28;20192;-72
2021/10/25 10:15:00;;;;;;;9.37;3.97;;;;;;;12.81;nan;101272.00;5059500;28;20203;-72
2021/10/25 10:17:32;;;;;;;7.97;3.90;;;;;;;12.35;nan;101275.47;5062466;28;20195;-73
2021/10/25 10:20:04;;;;;;;6.53;3.60;;;;;;;13.10;nan;101277.56;5060381;28;20251;-71
2021/10/25 10:22:31;;;;;;;10.77;3.83;;;;;;;12.19;nan;101257.53;5058062;28;20633;-73
2021/10/25 10:24:57;;;;;;;8.73;3.90;;;;;;;11.95;nan;101245.44;5060815;28;20171;-71
2021/10/25 10:27:25;;;;;;;8.80;4.03;;;;;;;11.88;nan;101247.56;5060656;28;20206;-73
2021/10/25 10:29:59;;;;;;;11.50;3.97;;;;;;;12.18;nan;101250.44;5055827;28;20171;-71
2021/10/25 10:32:26;;;;;;;7.77;4.07;;;;;;;12.57;nan;101246.56;5055156;28;20649;-71
2021/10/25 10:34:53;;;;;;;9.23;4.30;;;;;;;12.70;nan;101254.81;5055660;28;20289;-71
2021/10/25 10:37:24;;;;;;;8.10;4.00;;;;;;;12.81;nan;101250.59;5055022;28;20196;-72
2021/10/25 10:40:15;;;;;;;10.13;5.10;;;;;;;13.80;nan;101261.94;5055122;28;20598;-72
2021/10/25 10:42:52;;;;;;;11.07;4.40;;;;;;;14.48;nan;101270.31;5054483;28;20175;-71
2021/10/25 10:45:18;;;;;;;9.50;4.53;;;;;;;14.26;nan;101255.50;5053344;28;20201;-71
2021/10/25 10:47:58;;;;;;;9.80;4.27;;;;;;;15.28;nan;101269.66;5053722;28;20546;-71
2021/10/25 10:50:40;;;;;;;7.60;4.37;;;;;;;15.06;nan;101251.38;5054784;28;20513;-71
2021/10/25 10:53:15;;;;;;;8.03;3.90;;;;;;;17.14;nan;101264.81;5054659;28;20566;-72
2021/10/25 10:55:43;;;;;;;9.83;4.50;;;;;;;16.62;nan;101248.81;5037648;28;20252;-72
2021/10/25 10:58:26;;;;;;;8.17;4.57;;;;;;;16.13;nan;101220.81;5054771;28;20198;-72
2021/10/25 11:01:02;;;;;;;8.90;3.93;;;;;;;16.17;nan;101221.47;5054480;28;20160;-70
2021/10/25 11:03:28;;;;;;;8.17;4.10;;;;;;;17.15;nan;101245.81;5054597;28;20163;-70
2021/10/25 11:06:03;;;;;;;13.13;5.73;;;;;;;19.38;nan;101266.16;5054508;28;20198;-71
2021/10/25 11:08:30;;;;;;;8.43;4.23;;;;;;;19.49;nan;101268.81;5054267;28;20178;-70
2021/10/25 11:11:11;;;;;;;10.80;3.87;;;;;;;18.10;nan;101228.66;5054847;28;20266;-69
2021/10/25 11:13:42;;;;;;;7.20;3.50;;;;;;;20.66;nan;101254.28;5053480;28;20732;-71
2021/10/25 11:19:05;;;;;;;8.50;4.10;;;;;;;20.19;nan;101178.84;5030895;28;20211;-71
2021/10/25 11:21:37;;;;;;;7.87;3.67;;;;;;;17.11;nan;101141.84;5054313;28;20193;-71
2021/10/25 11:24:08;;;;;;;9.47;3.50;;;;;;;18.10;nan;101206.19;5054000;28;20166;-73
2021/10/25 11:26:46;;;;;;;5.50;3.30;;;;;;;18.70;nan;101215.84;5054734;28;20253;-72
2021/10/25 11:29:14;;;;;;;6.50;3.43;;;;;;;18.22;nan;101210.66;5054313;28;20186;-71
2021/10/25 11:31:43;;;;;;;6.97;3.57;;;;;;;19.26;nan;101227.41;5054515;28;20168;-71
2021/10/25 11:34:21;;;;;;;5.57;3.10;;;;;;;20.70;nan;101242.19;5037425;28;20195;-72
2021/10/25 11:37:03;;;;;;;6.20;3.67;;;;;;;19.04;nan;101209.41;5054804;28;20195;-72
2021/10/25 11:39:39;;;;;;;6.30;3.90;;;;;;;16.95;nan;101170.03;5054449;28;20175;-72
2021/10/25 11:42:31;;;;;;;9.53;4.13;;;;;;;18.89;nan;101189.00;5054707;28;20155;-70
2021/10/25 11:45:05;;;;;;;10.33;4.67;;;;;;;15.68;nan;101149.50;5052077;28;20554;-72
2021/10/25 11:47:32;;;;;;;16.33;5.07;;;;;;;16.98;nan;101146.41;5037823;28;20211;-72
2021/10/25 11:50:09;;;;;;;8.80;4.23;;;;;;;17.07;nan;101172.69;5052574;28;20179;-71
2021/10/25 11:52:39;;;;;;;9.83;4.63;;;;;;;17.13;nan;101176.78;5053830;28;20225;-72
2021/10/25 11:55:06;;;;;;;8.73;4.50;;;;;;;16.51;nan;101153.44;5051559;28;20223;-72
2021/10/25 11:57:31;;;;;;;11.20;4.80;;;;;;;18.05;nan;101209.25;5052078;28;20208;-70
2021/10/25 12:00:04;;;;;;;7.53;4.10;;;;;;;17.12;nan;101180.44;5035966;28;20191;-70
2021/10/25 12:02:30;;;;;;;5.70;3.60;;;;;;;17.07;nan;101161.03;5053130;28;20176;-71
2021/10/25 12:04:58;;;;;;;7.77;3.70;;;;;;;16.72;nan;101177.97;5054852;28;20175;-71
2021/10/25 12:07:24;;;;;;;8.40;3.70;;;;;;;16.63;nan;101150.81;5058044;28;20200;-71
2021/10/25 12:10:03;;;;;;;10.57;3.30;;;;;;;18.65;nan;101201.84;5053431;28;20266;-70
2021/10/25 12:12:29;;;;;;;6.57;3.40;;;;;;;18.84;nan;101199.34;5051900;28;20514;-71
2021/10/25 12:15:02;;;;;;;10.53;3.67;;;;;;;16.00;nan;101192.16;5052137;28;20241;-72
2021/10/25 12:17:31;;;;;;;5.13;3.00;;;;;;;18.45;nan;101189.88;5052399;28;20200;-71
2021/10/25 12:19:57;;;;;;;6.93;3.07;;;;;;;18.04;nan;101182.38;5051860;28;20635;-70
2021/10/25 12:22:22;;;;;;;5.47;3.10;;;;;;;17.83;nan;101173.25;5051731;28;20179;-71
2021/10/25 12:24:51;;;;;;;6.87;3.20;;;;;;;17.02;nan;101139.81;5053094;28;20183;-71
2021/10/25 12:27:23;;;;;;;7.97;3.67;;;;;;;18.74;nan;101177.63;5051541;28;20200;-71
2021/10/25 12:30:17;;;;;;;6.87;2.90;;;;;;;18.41;nan;101156.00;5051474;28;20629;-71
2021/10/25 12:32:57;;;;;;;6.77;3.10;;;;;;;18.53;nan;101160.41;5039029;28;20553;-71
2021/10/25 12:35:48;;;;;;;6.33;3.40;;;;;;;18.08;nan;101165.81;5052572;28;20223;-72
2021/10/25 12:38:17;;;;;;;7.70;3.23;;;;;;;17.56;nan;101182.47;5049080;28;20274;-71
2021/10/25 12:40:54;;;;;;;7.00;3.13;;;;;;;16.86;nan;101153.59;5051168;28;20179;-72
2021/10/25 12:43:21;;;;;;;6.63;2.83;;;;;;;17.47;nan;101170.56;5051490;28;20196;-71
2021/10/25 12:46:02;;;;;;;7.93;3.20;;;;;;;17.22;nan;101159.03;5051317;28;20215;-71
2021/10/25 12:48:39;;;;;;;7.67;3.50;;;;;;;15.68;nan;101130.69;5051763;28;20189;-72
2021/10/25 12:51:05;;;;;;;6.80;3.10;;;;;;;16.66;nan;101137.13;5051815;28;20636;-71
2021/10/25 12:53:31;;;;;;;8.70;3.20;;;;;;;16.70;nan;101128.72;5051401;28;20180;-71
2021/10/25 12:55:58;;;;;;;6.70;3.13;;;;;;;16.21;nan;101116.09;5052710;28;20198;-71
2021/10/25 12:58:24;;;;;;;7.73;3.23;;;;;;;16.22;nan;101138.50;5051211;28;20203;-72
2021/10/25 13:00:50;;;;;;;8.67;3.30;;;;;;;14.80;nan;101090.94;5034684;28;20182;-71
2021/10/25 13:03:15;;;;;;;6.00;3.20;;;;;;;13.82;nan;101081.13;5035229;28;20179;-72
2021/10/25 13:05:43;;;;;;;3.47;2.80;;;;;;;14.61;nan;101102.91;5053918;28;20260;-71
2021/10/25 13:08:09;;;;;;;7.83;3.60;;;;;;;14.22;nan;101087.53;5039176;28;20179;-71
2021/10/25 13:10:43;;;;;;;6.77;3.47;;;;;;;14.61;nan;101126.25;5055291;28;20168;-71